Time;durP1;ratioP1;P1;durP2;ratioP2;P2;SDS_P1;SDS_P2;PMS_P1;PMS_P2;Temp;Humidity;BMP_temperature;BMP_pressure;BME280_temperature;BME280_humidity;BME280_pressure;Samples;Min_cycle;Max_cycle;Signal;HPM_P1;HPM_P2
2023/10/24 00:01:41;;;;;;;10.60;1.95;;;;;;;11.09;100.00;99825.44;4991980;28;20050;-68
2023/10/24 00:04:07;;;;;;;5.72;1.48;;;;;;;11.19;100.00;99820.53;5011972;28;20043;-68
2023/10/24 00:06:34;;;;;;;11.05;2.13;;;;;;;10.91;100.00;99826.44;4991203;28;20085;-68
2023/10/24 00:09:04;;;;;;;11.52;2.55;;;;;;;10.91;100.00;99827.28;4991991;28;20054;-68
2023/10/24 00:11:32;;;;;;;13.95;1.88;;;;;;;11.02;100.00;99819.69;4990387;28;20058;-68
2023/10/24 00:13:58;;;;;;;8.27;2.17;;;;;;;11.14;100.00;99828.66;4996822;28;20050;-68
2023/10/24 00:16:25;;;;;;;12.57;2.58;;;;;;;10.96;100.00;99803.44;5010375;28;20073;-68
2023/10/24 00:18:52;;;;;;;10.90;2.33;;;;;;;11.09;100.00;99822.81;5005470;28;20089;-68
2023/10/24 00:21:18;;;;;;;13.32;2.72;;;;;;;11.09;100.00;99817.59;4991467;28;20050;-68
2023/10/24 00:23:45;;;;;;;10.30;2.17;;;;;;;11.07;100.00;99816.81;4994745;28;20045;-68
2023/10/24 00:26:12;;;;;;;12.43;2.42;;;;;;;10.92;100.00;99815.88;5006562;28;20045;-68
2023/10/24 00:28:39;;;;;;;11.13;2.10;;;;;;;10.83;100.00;99814.59;4988279;28;20576;-68
2023/10/24 00:31:07;;;;;;;9.80;2.22;;;;;;;10.95;100.00;99788.69;4990776;28;20297;-68
2023/10/24 00:33:34;;;;;;;15.35;2.88;;;;;;;11.05;100.00;99817.81;5001596;28;20332;-68
2023/10/24 00:36:00;;;;;;;10.10;2.17;;;;;;;11.12;100.00;99820.06;5011520;28;20050;-68
2023/10/24 00:38:27;;;;;;;13.45;2.22;;;;;;;11.11;100.00;99809.66;5011289;28;20046;-67
2023/10/24 00:40:54;;;;;;;10.45;2.25;;;;;;;10.97;100.00;99807.78;5005263;28;20460;-68
2023/10/24 00:43:20;;;;;;;14.68;3.35;;;;;;;11.07;100.00;99813.38;4995512;28;20058;-68
2023/10/24 00:45:47;;;;;;;10.98;1.58;;;;;;;11.06;100.00;99812.50;4995798;28;20437;-69
2023/10/24 00:48:14;;;;;;;8.43;2.15;;;;;;;11.18;100.00;99803.16;5003540;28;20046;-68
2023/10/24 00:50:41;;;;;;;9.55;2.25;;;;;;;11.13;100.00;99794.69;5001092;28;20049;-68
2023/10/24 00:53:07;;;;;;;17.23;2.58;;;;;;;10.99;100.00;99805.91;4994020;28;20270;-67
2023/10/24 00:55:37;;;;;;;10.57;2.22;;;;;;;10.89;100.00;99802.97;5008413;28;20065;-68
2023/10/24 00:58:06;;;;;;;14.82;2.70;;;;;;;10.82;100.00;99791.97;4991960;28;20050;-69
2023/10/24 01:00:34;;;;;;;11.93;2.17;;;;;;;11.07;100.00;99789.78;4997941;28;20614;-69
2023/10/24 01:03:02;;;;;;;12.40;2.08;;;;;;;10.98;100.00;99796.38;4991001;28;20058;-71
2023/10/24 01:05:30;;;;;;;9.38;2.17;;;;;;;10.98;100.00;99805.06;5002381;28;20054;-69
2023/10/24 01:07:57;;;;;;;14.90;2.60;;;;;;;10.82;100.00;99791.13;5005226;28;20476;-68
2023/10/24 01:10:24;;;;;;;10.15;1.65;;;;;;;10.89;100.00;99792.47;4991408;28;20058;-69
2023/10/24 01:12:50;;;;;;;17.90;2.15;;;;;;;10.90;100.00;99786.28;4989947;28;20051;-70
2023/10/24 01:15:17;;;;;;;16.38;3.58;;;;;;;10.92;100.00;99765.28;4990731;28;20050;-69
2023/10/24 01:17:49;;;;;;;9.75;2.50;;;;;;;10.89;100.00;99760.19;5001308;28;20057;-70
2023/10/24 01:20:16;;;;;;;15.90;2.10;;;;;;;10.93;100.00;99764.34;5009784;28;20053;-70
2023/10/24 01:22:47;;;;;;;14.68;2.78;;;;;;;10.93;100.00;99764.34;5006339;28;20423;-69
2023/10/24 01:25:14;;;;;;;8.63;2.03;;;;;;;10.99;100.00;99756.97;4996284;28;20053;-69
2023/10/24 01:27:43;;;;;;;12.65;1.90;;;;;;;10.95;100.00;99754.63;4993656;28;20081;-69
2023/10/24 01:30:11;;;;;;;9.25;1.75;;;;;;;10.96;100.00;99748.44;4988893;28;20078;-69
2023/10/24 01:32:39;;;;;;;8.32;1.70;;;;;;;10.99;100.00;99730.78;4993242;28;20054;-70
2023/10/24 01:35:07;;;;;;;6.55;1.85;;;;;;;10.81;100.00;99737.06;4996887;28;20511;-69
2023/10/24 01:37:35;;;;;;;9.18;2.08;;;;;;;10.99;100.00;99746.50;5010009;28;20053;-70
2023/10/24 01:40:05;;;;;;;9.25;1.60;;;;;;;11.14;100.00;99733.50;5009065;28;20196;-69
2023/10/24 01:42:32;;;;;;;13.60;2.42;;;;;;;11.01;100.00;99726.34;4991190;28;20086;-70
2023/10/24 01:44:59;;;;;;;11.63;2.80;;;;;;;10.97;100.00;99730.03;4990471;28;20101;-70
2023/10/24 01:47:25;;;;;;;11.82;2.05;;;;;;;10.93;100.00;99733.75;4998384;28;20068;-69
2023/10/24 01:49:52;;;;;;;8.88;1.77;;;;;;;10.93;100.00;99731.16;4996076;28;20125;-68
2023/10/24 01:52:19;;;;;;;10.55;2.00;;;;;;;10.95;100.00;99725.81;4993340;28;20051;-70
2023/10/24 01:54:45;;;;;;;10.60;2.28;;;;;;;11.09;100.00;99736.38;5002134;28;20046;-68
2023/10/24 01:57:12;;;;;;;17.38;2.63;;;;;;;10.86;100.00;99724.56;4990468;28;20061;-71
2023/10/24 01:59:39;;;;;;;11.48;1.98;;;;;;;10.92;100.00;99732.06;4995078;28;20061;-71
2023/10/24 02:02:05;;;;;;;17.13;4.00;;;;;;;10.94;100.00;99729.34;4990296;28;20412;-70
2023/10/24 02:04:32;;;;;;;15.32;2.38;;;;;;;11.06;100.00;99725.22;4990085;28;20129;-70
2023/10/24 02:06:59;;;;;;;11.27;1.75;;;;;;;11.21;100.00;99712.13;4982579;28;20050;-70
2023/10/24 02:09:29;;;;;;;8.68;1.90;;;;;;;11.17;100.00;99707.13;5010259;28;20080;-70
2023/10/24 02:11:59;;;;;;;10.23;2.13;;;;;;;11.21;100.00;99712.13;4994439;28;20046;-69
2023/10/24 02:14:25;;;;;;;17.55;3.20;;;;;;;11.18;100.00;99700.97;5004650;28;20046;-69
2023/10/24 02:16:52;;;;;;;7.68;2.22;;;;;;;11.26;100.00;99704.00;5009749;28;20389;-68
2023/10/24 02:19:19;;;;;;;14.30;2.88;;;;;;;11.05;100.00;99700.81;4992372;28;20081;-69
2023/10/24 02:21:46;;;;;;;8.18;1.98;;;;;;;11.02;100.00;99691.34;4992721;28;20321;-70
2023/10/24 02:24:12;;;;;;;11.45;2.20;;;;;;;11.05;100.00;99698.19;5021042;28;20511;-68
2023/10/24 02:26:39;;;;;;;14.75;2.33;;;;;;;11.00;100.00;99690.59;4993852;28;20066;-69
2023/10/24 02:29:06;;;;;;;9.85;2.40;;;;;;;11.15;100.00;99703.75;4994020;28;20560;-68
2023/10/24 02:31:32;;;;;;;13.23;2.80;;;;;;;11.23;100.00;99683.22;4994257;28;20054;-68
2023/10/24 02:33:59;;;;;;;11.00;2.97;;;;;;;11.14;100.00;99686.34;4996356;28;20062;-69
2023/10/24 02:36:26;;;;;;;14.98;3.67;;;;;;;11.01;100.00;99673.09;5003053;28;20634;-69
2023/10/24 02:38:53;;;;;;;8.48;1.88;;;;;;;11.26;100.00;99684.78;5007870;28;20510;-69
2023/10/24 02:41:19;;;;;;;16.48;2.90;;;;;;;11.13;100.00;99682.03;4992518;28;20042;-69
2023/10/24 02:43:46;;;;;;;14.35;2.53;;;;;;;11.17;100.00;99678.31;5007948;28;20054;-69
2023/10/24 02:46:13;;;;;;;13.13;2.47;;;;;;;11.01;100.00;99673.94;4995610;28;20468;-69
2023/10/24 02:48:40;;;;;;;14.63;2.47;;;;;;;11.23;100.00;99679.75;5001170;28;20404;-69
2023/10/24 02:51:06;;;;;;;15.75;2.50;;;;;;;11.23;100.00;99679.75;5011190;28;20049;-69
2023/10/24 02:53:33;;;;;;;12.40;1.73;;;;;;;11.24;100.00;99677.00;5000315;28;20057;-69
2023/10/24 02:56:03;;;;;;;19.02;2.58;;;;;;;11.23;100.00;99674.50;5011261;28;20042;-69
2023/10/24 02:58:30;;;;;;;10.43;1.75;;;;;;;11.14;100.00;99673.25;4993017;28;20061;-68
2023/10/24 03:01:03;;;;;;;8.38;1.92;;;;;;;11.18;100.00;99659.03;4993162;28;20054;-69
2023/10/24 03:03:31;;;;;;;6.57;1.52;;;;;;;11.36;100.00;99673.69;4997582;28;20057;-68
2023/10/24 03:05:58;;;;;;;11.65;2.95;;;;;;;11.21;100.00;99658.88;5000288;28;20054;-68
2023/10/24 03:08:25;;;;;;;9.68;2.20;;;;;;;11.26;100.00;99667.31;5009691;28;20403;-68
2023/10/24 03:10:51;;;;;;;12.82;1.98;;;;;;;11.30;100.00;99660.13;5003012;28;20065;-68
2023/10/24 03:13:18;;;;;;;17.05;2.70;;;;;;;11.20;100.00;99649.31;5006026;28;20045;-68
2023/10/24 03:15:45;;;;;;;12.05;2.00;;;;;;;11.32;100.00;99653.00;5000245;28;20129;-69
2023/10/24 03:18:11;;;;;;;16.13;3.53;;;;;;;11.24;100.00;99639.50;4998535;28;20054;-69
2023/10/24 03:20:40;;;;;;;11.43;2.38;;;;;;;11.20;100.00;99644.91;5012082;28;20077;-68
2023/10/24 03:23:07;;;;;;;10.07;2.40;;;;;;;11.25;100.00;99641.19;4996607;28;20050;-68
2023/10/24 03:25:34;;;;;;;10.50;2.50;;;;;;;11.21;100.00;99641.38;5002191;28;20491;-69
2023/10/24 03:28:00;;;;;;;14.57;2.50;;;;;;;11.26;100.00;99645.50;4992233;28;20042;-68
2023/10/24 03:30:27;;;;;;;13.23;2.30;;;;;;;11.18;100.00;99640.69;4995223;28;20056;-68
2023/10/24 03:32:54;;;;;;;14.32;3.10;;;;;;;11.17;100.00;99639.00;5001850;28;20447;-68
2023/10/24 03:35:20;;;;;;;13.60;2.80;;;;;;;11.20;100.00;99639.66;5026803;28;20054;-68
2023/10/24 03:37:47;;;;;;;9.25;2.42;;;;;;;11.31;100.00;99635.59;5012459;28;20054;-68
2023/10/24 03:40:14;;;;;;;10.57;2.22;;;;;;;11.24;100.00;99634.25;5012636;28;20602;-68
2023/10/24 03:42:41;;;;;;;12.15;2.20;;;;;;;11.06;100.00;99630.94;5001136;28;20085;-68
2023/10/24 03:45:07;;;;;;;11.10;2.47;;;;;;;11.09;100.00;99628.13;5000019;28;20480;-68
2023/10/24 03:47:34;;;;;;;12.88;2.58;;;;;;;11.14;100.00;99621.69;4991846;28;20511;-68
2023/10/24 03:50:01;;;;;;;12.90;2.22;;;;;;;11.23;100.00;99622.94;4998668;28;20050;-68
2023/10/24 03:52:27;;;;;;;12.13;2.00;;;;;;;11.24;100.00;99626.41;4992838;28;20098;-68
2023/10/24 03:54:54;;;;;;;9.50;2.63;;;;;;;11.16;100.00;99622.44;5004685;28;20508;-68
2023/10/24 03:57:21;;;;;;;16.30;2.78;;;;;;;11.09;100.00;99630.75;5002228;28;20054;-69
2023/10/24 03:59:47;;;;;;;12.18;3.25;;;;;;;11.01;100.00;99626.81;4997796;28;20050;-68
2023/10/24 04:02:14;;;;;;;17.45;2.28;;;;;;;11.00;100.00;99616.41;4996791;28;20046;-68
2023/10/24 04:04:41;;;;;;;13.45;2.60;;;;;;;11.10;100.00;99617.56;5004744;28;20128;-68
2023/10/24 04:07:08;;;;;;;9.75;1.83;;;;;;;11.23;100.00;99614.25;4999564;28;20456;-68
2023/10/24 04:09:34;;;;;;;7.28;2.13;;;;;;;11.24;100.00;99611.50;5011217;28;20073;-70
2023/10/24 04:12:06;;;;;;;9.32;2.03;;;;;;;11.23;100.00;99601.97;4999966;28;20104;-68
2023/10/24 04:14:33;;;;;;;11.15;2.17;;;;;;;11.09;100.00;99601.94;4992485;28;20476;-68
2023/10/24 04:16:59;;;;;;;11.57;2.50;;;;;;;11.30;100.00;99605.09;5002527;28;20480;-68
2023/10/24 04:19:26;;;;;;;8.85;2.60;;;;;;;11.32;100.00;99600.59;4991749;28;20046;-68
2023/10/24 04:21:53;;;;;;;25.58;2.97;;;;;;;11.19;100.00;99600.44;4992519;28;20136;-68
2023/10/24 04:24:20;;;;;;;8.90;2.22;;;;;;;11.20;100.00;99600.38;5011666;28;20506;-68
2023/10/24 04:26:47;;;;;;;13.07;2.50;;;;;;;11.19;100.00;99589.97;4999495;28;20077;-68
2023/10/24 04:29:13;;;;;;;9.23;2.38;;;;;;;11.07;100.00;99594.16;5003873;28;20496;-70
2023/10/24 04:31:41;;;;;;;13.52;2.53;;;;;;;11.09;100.00;99586.22;4987171;28;20050;-68
2023/10/24 04:34:08;;;;;;;10.52;1.85;;;;;;;11.14;100.00;99590.25;5009277;28;20057;-68
2023/10/24 04:36:34;;;;;;;11.05;2.00;;;;;;;11.09;100.00;99579.19;4998686;28;20077;-68
2023/10/24 04:39:01;;;;;;;12.00;1.77;;;;;;;11.26;100.00;99591.34;5007021;28;20129;-70
2023/10/24 04:41:28;;;;;;;12.60;2.38;;;;;;;11.30;100.00;99584.97;5009070;28;20050;-70
2023/10/24 04:43:54;;;;;;;13.40;2.05;;;;;;;11.26;100.00;99582.59;4994002;28;20476;-70
2023/10/24 04:46:21;;;;;;;12.70;2.28;;;;;;;11.12;100.00;99578.16;4992419;28;20060;-70
2023/10/24 04:48:48;;;;;;;8.80;1.80;;;;;;;11.15;100.00;99589.31;4991943;28;20138;-70
2023/10/24 04:51:15;;;;;;;17.13;3.08;;;;;;;11.02;100.00;99586.56;4994363;28;20411;-70
2023/10/24 04:53:41;;;;;;;12.70;2.00;;;;;;;11.08;100.00;99577.50;4988724;28;20061;-70
2023/10/24 04:56:08;;;;;;;8.88;2.05;;;;;;;11.09;100.00;99568.72;5011158;28;20557;-69
2023/10/24 04:58:35;;;;;;;11.02;2.22;;;;;;;11.20;100.00;99574.16;5009121;28;20415;-69
2023/10/24 05:01:02;;;;;;;8.32;1.67;;;;;;;10.98;100.00;99564.09;4998034;28;20129;-69
2023/10/24 05:03:30;;;;;;;11.23;2.67;;;;;;;11.13;100.00;99587.72;4990415;28;20089;-69
2023/10/24 05:05:56;;;;;;;10.30;1.98;;;;;;;11.11;100.00;99566.84;4990989;28;20051;-70
2023/10/24 05:08:23;;;;;;;12.18;1.63;;;;;;;11.22;100.00;99581.94;4994367;28;20506;-69
2023/10/24 05:10:50;;;;;;;7.88;1.65;;;;;;;11.15;100.00;99567.53;5009428;28;20508;-68
2023/10/24 05:13:16;;;;;;;10.07;1.75;;;;;;;11.01;100.00;99576.16;4995459;28;20082;-70
2023/10/24 05:15:45;;;;;;;11.30;2.00;;;;;;;10.97;100.00;99582.53;5010334;28;20082;-68
2023/10/24 05:18:12;;;;;;;11.00;2.50;;;;;;;11.08;100.00;99587.16;5009238;28;20111;-69
2023/10/24 05:20:39;;;;;;;8.73;1.70;;;;;;;11.09;100.00;99581.00;4995588;28;20402;-68
2023/10/24 05:23:06;;;;;;;11.18;1.92;;;;;;;11.00;100.00;99579.75;4993235;28;20054;-68
2023/10/24 05:25:33;;;;;;;10.60;1.92;;;;;;;11.00;100.00;99571.88;5004644;28;20054;-69
2023/10/24 05:28:01;;;;;;;8.43;2.17;;;;;;;11.02;100.00;99578.72;5000194;28;20077;-68
2023/10/24 05:30:27;;;;;;;10.18;2.08;;;;;;;11.04;100.00;99581.25;4994853;28;20473;-69
2023/10/24 05:32:54;;;;;;;11.07;2.33;;;;;;;11.11;100.00;99582.56;4995025;28;20093;-68
2023/10/24 05:35:21;;;;;;;8.93;1.88;;;;;;;11.02;100.00;99575.25;4993650;28;20425;-68
2023/10/24 05:37:48;;;;;;;12.40;2.10;;;;;;;11.05;100.00;99572.47;4998004;28;20450;-68
2023/10/24 05:40:15;;;;;;;14.45;2.20;;;;;;;11.00;100.00;99545.69;5010042;28;20144;-69
2023/10/24 05:42:42;;;;;;;16.95;3.08;;;;;;;11.06;100.00;99563.66;4993065;28;20053;-69
2023/10/24 05:45:09;;;;;;;8.02;1.92;;;;;;;11.12;100.00;99557.22;4993790;28;20054;-69
2023/10/24 05:47:36;;;;;;;8.63;2.08;;;;;;;11.07;100.00;99564.53;5004259;28;20050;-68
2023/10/24 05:50:03;;;;;;;10.15;2.08;;;;;;;10.91;100.00;99569.81;5002993;28;20081;-68
2023/10/24 05:52:29;;;;;;;12.02;2.35;;;;;;;11.10;100.00;99566.94;4992965;28;20408;-68
2023/10/24 05:54:58;;;;;;;10.20;2.33;;;;;;;11.18;100.00;99556.88;5004713;28;20073;-68
2023/10/24 05:57:25;;;;;;;9.60;2.10;;;;;;;11.12;100.00;99559.81;4990514;28;20050;-69
2023/10/24 05:59:51;;;;;;;7.63;1.70;;;;;;;11.05;100.00;99564.59;4990363;28;20097;-68
2023/10/24 06:02:18;;;;;;;12.02;2.17;;;;;;;11.11;100.00;99555.53;4990064;28;20046;-69
2023/10/24 06:04:45;;;;;;;11.48;2.83;;;;;;;11.01;100.00;99565.69;4987281;28;20740;-68
2023/10/24 06:07:13;;;;;;;10.07;2.33;;;;;;;11.11;100.00;99566.03;4990152;28;20101;-68
2023/10/24 06:09:40;;;;;;;9.38;2.03;;;;;;;10.94;100.00;99533.81;4990455;28;20054;-69
2023/10/24 06:12:08;;;;;;;11.93;2.25;;;;;;;11.12;100.00;99565.94;4992807;28;20496;-68
2023/10/24 06:14:34;;;;;;;11.63;2.60;;;;;;;11.24;100.00;99561.72;4993540;28;20478;-68
2023/10/24 06:17:01;;;;;;;19.33;3.38;;;;;;;11.27;100.00;99558.09;4989072;28;20132;-68
2023/10/24 06:19:29;;;;;;;12.85;1.92;;;;;;;11.28;100.00;99554.53;4990101;28;20521;-68
2023/10/24 06:21:56;;;;;;;7.82;2.00;;;;;;;11.21;100.00;99561.94;4987738;28;20051;-69
2023/10/24 06:24:22;;;;;;;24.20;2.85;;;;;;;11.30;100.00;99556.13;4989558;28;20503;-68
2023/10/24 06:26:49;;;;;;;9.57;2.30;;;;;;;11.23;100.00;99557.44;4989478;28;20061;-68
2023/10/24 06:29:16;;;;;;;10.05;1.85;;;;;;;11.20;100.00;99555.00;4990433;28;20489;-69
2023/10/24 06:31:42;;;;;;;10.10;1.92;;;;;;;11.29;100.00;99551.81;4986443;28;20132;-68
2023/10/24 06:34:09;;;;;;;7.18;1.90;;;;;;;11.44;100.00;99549.22;4989805;28;20050;-68
2023/10/24 06:36:36;;;;;;;9.70;1.73;;;;;;;11.33;100.00;99555.97;4990042;28;20046;-68
2023/10/24 06:39:05;;;;;;;8.13;1.95;;;;;;;11.27;100.00;99558.09;4992584;28;20046;-68
2023/10/24 06:41:33;;;;;;;6.78;1.67;;;;;;;11.27;100.00;99564.19;4988438;28;20046;-68
2023/10/24 06:44:00;;;;;;;10.20;1.80;;;;;;;11.32;100.00;99564.75;4990235;28;20133;-68
2023/10/24 06:46:27;;;;;;;8.73;2.00;;;;;;;11.25;100.00;99563.44;4988587;28;20043;-68
2023/10/24 06:48:53;;;;;;;8.95;1.60;;;;;;;11.14;100.00;99540.47;4981445;28;20050;-68
2023/10/24 06:51:20;;;;;;;7.70;1.70;;;;;;;11.21;100.00;99547.03;4989425;28;20058;-68
2023/10/24 06:53:47;;;;;;;7.07;1.77;;;;;;;11.40;100.00;99564.28;4987593;28;20055;-68
2023/10/24 06:56:14;;;;;;;9.73;2.10;;;;;;;11.24;100.00;99561.72;4988622;28;20089;-68
2023/10/24 06:58:41;;;;;;;9.07;2.28;;;;;;;11.20;100.00;99552.38;4991300;28;20046;-69
2023/10/24 07:01:07;;;;;;;10.23;1.77;;;;;;;11.27;100.00;99561.56;4993013;28;20050;-68
2023/10/24 07:03:34;;;;;;;10.20;2.00;;;;;;;11.07;100.00;99552.25;4992097;28;20050;-68
2023/10/24 07:06:01;;;;;;;8.38;1.90;;;;;;;11.20;100.00;99562.84;4995954;28;20447;-68
2023/10/24 07:08:28;;;;;;;9.48;1.50;;;;;;;11.19;100.00;99567.25;4992789;28;20054;-68
2023/10/24 07:10:54;;;;;;;8.13;1.67;;;;;;;11.11;100.00;99566.84;4992047;28;20080;-68
2023/10/24 07:13:21;;;;;;;10.25;2.05;;;;;;;11.00;100.00;99570.09;4981352;28;20149;-68
2023/10/24 07:15:48;;;;;;;6.90;1.60;;;;;;;11.03;100.00;99553.38;4992382;28;20683;-68
2023/10/24 07:18:15;;;;;;;7.70;2.15;;;;;;;11.23;100.00;99562.69;4991805;28;20058;-68
2023/10/24 07:20:43;;;;;;;10.90;2.30;;;;;;;11.06;100.00;99575.91;4993584;28;20492;-68
2023/10/24 07:23:09;;;;;;;9.27;2.03;;;;;;;11.33;100.00;99574.31;4992941;28;20125;-68
2023/10/24 07:25:36;;;;;;;10.05;1.75;;;;;;;11.25;100.00;99557.34;4992166;28;20411;-68
2023/10/24 07:28:05;;;;;;;12.88;2.47;;;;;;;11.24;100.00;99566.97;4983249;28;20058;-69
2023/10/24 07:30:32;;;;;;;7.68;1.77;;;;;;;11.31;100.00;99573.53;4990906;28;20057;-69
2023/10/24 07:32:58;;;;;;;10.05;2.00;;;;;;;11.33;100.00;99576.94;4991190;28;20105;-69
2023/10/24 07:35:25;;;;;;;8.95;2.33;;;;;;;11.27;100.00;99571.19;4991479;28;20065;-69
2023/10/24 07:37:53;;;;;;;7.50;2.00;;;;;;;11.24;100.00;99580.06;4991761;28;20096;-69
2023/10/24 07:40:20;;;;;;;5.18;1.33;;;;;;;11.39;100.00;99578.34;4991978;28;20527;-69
2023/10/24 07:42:46;;;;;;;9.32;1.48;;;;;;;11.32;100.00;99574.41;4992556;28;20100;-69
2023/10/24 07:45:13;;;;;;;6.03;1.63;;;;;;;11.37;100.00;99567.94;4986529;28;20054;-69
2023/10/24 07:47:40;;;;;;;6.57;1.58;;;;;;;11.44;100.00;99567.56;4989891;28;20054;-68
2023/10/24 07:50:09;;;;;;;7.70;1.55;;;;;;;11.48;100.00;99567.31;4990575;28;20493;-69
2023/10/24 07:52:36;;;;;;;7.70;1.60;;;;;;;11.43;100.00;99571.13;4985552;28;20473;-69
2023/10/24 07:55:03;;;;;;;11.52;2.10;;;;;;;11.34;100.00;99564.66;4987323;28;20054;-69
2023/10/24 07:57:30;;;;;;;15.45;2.00;;;;;;;11.46;100.00;99570.97;4988899;28;20401;-68
2023/10/24 07:59:57;;;;;;;6.55;1.55;;;;;;;11.45;100.00;99566.63;4984878;28;20042;-69
2023/10/24 08:02:24;;;;;;;6.65;1.30;;;;;;;11.49;100.00;99578.63;4990034;28;20152;-69
2023/10/24 08:04:51;;;;;;;13.10;2.33;;;;;;;11.34;100.00;99573.34;4989710;28;20043;-68
2023/10/24 08:07:18;;;;;;;7.03;1.42;;;;;;;11.34;100.00;99580.38;4992450;28;20046;-69
2023/10/24 08:09:45;;;;;;;6.40;1.45;;;;;;;11.27;100.00;99574.66;4997024;28;20050;-69
2023/10/24 08:12:11;;;;;;;11.10;2.70;;;;;;;11.19;100.00;99575.13;4985070;28;20060;-68
2023/10/24 08:14:38;;;;;;;8.60;2.08;;;;;;;11.11;100.00;99566.03;4982739;28;20047;-69
2023/10/24 08:17:06;;;;;;;13.07;2.22;;;;;;;11.27;100.00;99574.66;4985249;28;20053;-68
2023/10/24 08:19:33;;;;;;;11.70;2.03;;;;;;;11.30;100.00;99573.66;5005677;28;20073;-69
2023/10/24 08:22:00;;;;;;;7.50;1.35;;;;;;;11.33;100.00;99587.41;4986100;28;20047;-69
2023/10/24 08:24:27;;;;;;;5.85;1.48;;;;;;;11.31;100.00;99581.41;4990703;28;20046;-69
2023/10/24 08:26:53;;;;;;;7.43;1.65;;;;;;;11.35;100.00;99575.06;4991344;28;20059;-69
2023/10/24 08:29:36;;;;;;;7.47;1.70;;;;;;;11.30;100.00;99581.50;4991953;28;20480;-69
2023/10/24 08:32:03;;;;;;;6.07;1.63;;;;;;;11.28;100.00;99588.59;4987305;28;20054;-68
2023/10/24 08:34:38;;;;;;;6.18;1.60;;;;;;;11.19;100.00;99582.97;4990802;28;20053;-68
2023/10/24 08:37:06;;;;;;;7.47;1.60;;;;;;;11.26;100.00;99586.09;4990522;28;20495;-69
2023/10/24 08:39:32;;;;;;;5.55;1.58;;;;;;;11.29;100.00;99585.88;4987928;28;20054;-69
2023/10/24 08:41:59;;;;;;;9.88;1.55;;;;;;;11.15;100.00;99580.63;4985546;28;20484;-69
2023/10/24 08:44:29;;;;;;;10.00;1.73;;;;;;;11.28;100.00;99584.22;4987685;28;20053;-69
2023/10/24 08:46:56;;;;;;;4.90;1.33;;;;;;;11.24;100.00;99584.47;4988379;28;20050;-69
2023/10/24 08:49:23;;;;;;;6.72;2.10;;;;;;;11.17;100.00;99581.38;4991810;28;20112;-69
2023/10/24 08:51:51;;;;;;;6.30;1.33;;;;;;;11.31;100.00;99588.41;4978137;28;20078;-69
2023/10/24 08:54:17;;;;;;;16.67;2.42;;;;;;;11.43;100.00;99579.84;4974635;28;20043;-68
2023/10/24 08:56:45;;;;;;;13.15;2.17;;;;;;;11.37;100.00;99575.81;4971598;28;20057;-68
2023/10/24 08:59:13;;;;;;;6.32;1.80;;;;;;;11.28;100.00;99567.63;4987670;28;20053;-69
2023/10/24 09:01:41;;;;;;;12.55;1.85;;;;;;;11.33;100.00;99578.69;4989073;28;20078;-69
2023/10/24 09:04:08;;;;;;;6.90;1.50;;;;;;;11.32;100.00;99569.16;4985182;28;20054;-69
2023/10/24 09:06:37;;;;;;;8.30;1.52;;;;;;;11.32;100.00;99575.22;4986981;28;20094;-68
2023/10/24 09:09:04;;;;;;;6.90;1.42;;;;;;;11.39;100.00;99575.72;4985737;28;20089;-68
2023/10/24 09:12:03;;;;;;;7.05;1.90;;;;;;;11.41;100.00;99576.47;4982706;28;20148;-68
2023/10/24 09:14:30;;;;;;;7.35;1.40;;;;;;;11.27;100.00;99565.97;4987138;28;20046;-69
2023/10/24 09:17:17;;;;;;;6.32;1.60;;;;;;;11.46;100.00;99563.09;4981921;28;20042;-68
2023/10/24 09:19:44;;;;;;;7.78;1.45;;;;;;;11.38;100.00;99571.41;4973989;28;20046;-68
2023/10/24 09:22:17;;;;;;;5.40;1.17;;;;;;;11.46;100.00;99568.34;4980417;28;20042;-68
2023/10/24 09:24:45;;;;;;;8.13;2.03;;;;;;;11.47;100.00;99565.59;4985295;28;20077;-68
2023/10/24 09:27:16;;;;;;;5.30;1.30;;;;;;;11.57;100.00;99568.53;4988967;28;20570;-68
2023/10/24 09:29:43;;;;;;;7.75;1.77;;;;;;;11.49;100.00;99568.13;4990933;28;20065;-69
2023/10/24 09:32:17;;;;;;;5.45;1.63;;;;;;;11.50;100.00;99569.84;4979441;28;20054;-68
2023/10/24 09:34:45;;;;;;;4.00;1.17;;;;;;;11.54;100.00;99560.84;4986698;28;20058;-69
2023/10/24 09:37:13;;;;;;;4.05;1.25;;;;;;;11.65;100.00;99554.94;4989049;28;20046;-69
2023/10/24 09:40:09;;;;;;;8.02;1.30;;;;;;;11.72;100.00;99558.88;4990165;28;20050;-69
2023/10/24 09:42:37;;;;;;;7.82;1.58;;;;;;;11.71;100.00;99549.34;4973540;28;20054;-69
2023/10/24 09:45:07;;;;;;;7.85;2.17;;;;;;;11.46;100.00;99558.69;4981327;28;20463;-70
2023/10/24 09:47:37;;;;;;;7.70;1.80;;;;;;;11.66;100.00;99552.22;4987295;28;20069;-69
2023/10/24 09:50:09;;;;;;;4.25;1.27;;;;;;;11.71;100.00;99550.19;4988669;28;20148;-69
2023/10/24 09:52:36;;;;;;;11.65;1.70;;;;;;;11.74;100.00;99557.03;4980489;28;20047;-69
2023/10/24 09:55:04;;;;;;;8.30;1.77;;;;;;;11.58;100.00;99547.47;4989274;28;20136;-68
2023/10/24 09:57:30;;;;;;;6.03;1.95;;;;;;;11.61;100.00;99551.66;4982607;28;20042;-69
2023/10/24 09:59:58;;;;;;;7.60;1.35;;;;;;;11.73;100.00;99548.28;4985409;28;20057;-69
2023/10/24 10:02:26;;;;;;;7.88;2.10;;;;;;;11.65;100.00;99542.69;4985665;28;20112;-69
2023/10/24 10:04:54;;;;;;;7.07;1.23;;;;;;;11.88;100.00;99546.53;4987628;28;20412;-69
2023/10/24 10:07:24;;;;;;;9.13;1.85;;;;;;;11.87;100.00;99547.44;4983893;28;20178;-69
2023/10/24 10:09:52;;;;;;;5.18;1.30;;;;;;;11.69;100.00;99543.34;4988071;28;20484;-70
2023/10/24 10:12:19;;;;;;;3.75;1.30;;;;;;;11.90;100.00;99549.06;4981865;28;20090;-69
2023/10/24 10:15:15;;;;;;;6.95;1.73;;;;;;;12.06;100.00;99555.06;4987198;28;20120;-69
2023/10/24 10:18:00;;;;;;;5.60;1.50;;;;;;;12.20;100.00;99542.84;4972810;28;20055;-69
2023/10/24 10:20:45;;;;;;;3.80;1.08;;;;;;;11.99;100.00;99550.28;4981938;28;20553;-69
2023/10/24 10:23:30;;;;;;;4.03;1.10;;;;;;;12.15;100.00;99553.63;4983271;28;20051;-70
2023/10/24 10:26:19;;;;;;;5.63;1.20;;;;;;;12.34;100.00;99554.16;4986542;28;20492;-69
2023/10/24 10:29:05;;;;;;;7.78;1.20;;;;;;;12.41;100.00;99540.63;4987538;28;20476;-69
2023/10/24 10:31:40;;;;;;;6.55;1.23;;;;;;;12.17;100.00;99551.75;4986307;28;20085;-69
2023/10/24 10:34:35;;;;;;;4.20;1.23;;;;;;;12.53;100.00;99545.09;4984689;28;20046;-70
2023/10/24 10:37:03;;;;;;;4.80;1.20;;;;;;;12.43;100.00;99552.72;4992013;28;20050;-69
2023/10/24 10:39:30;;;;;;;5.18;1.30;;;;;;;12.49;100.00;99546.25;4989575;28;20066;-70
2023/10/24 10:41:57;;;;;;;5.93;1.50;;;;;;;12.71;100.00;99546.53;4991493;28;20054;-69
2023/10/24 10:44:40;;;;;;;9.35;1.65;;;;;;;12.61;100.00;99550.69;4986231;28;20141;-69
2023/10/24 10:47:14;;;;;;;5.95;1.58;;;;;;;12.41;100.00;99543.25;4983467;28;20145;-70
2023/10/24 10:49:47;;;;;;;4.53;1.40;;;;;;;12.67;100.00;99539.78;4987992;28;20054;-69
2023/10/24 10:52:17;;;;;;;7.00;1.65;;;;;;;12.58;100.00;99543.00;4979279;28;20083;-68
2023/10/24 10:55:18;;;;;;;4.90;1.42;;;;;;;12.70;100.00;99538.75;4980771;28;20061;-69
2023/10/24 10:58:03;;;;;;;4.43;1.63;;;;;;;12.72;100.00;99535.06;4975539;28;20050;-69
2023/10/24 11:01:00;;;;;;;5.68;1.50;;;;;;;12.82;100.00;99542.34;4990950;28;20473;-69
2023/10/24 11:03:42;;;;;;;7.07;1.40;;;;;;;12.95;100.00;99545.03;4976399;28;20074;-69
2023/10/24 11:06:14;;;;;;;7.70;1.73;;;;;;;12.72;100.00;99556.09;4981287;28;20101;-69
2023/10/24 11:09:03;;;;;;;4.68;1.33;;;;;;;12.86;100.00;99559.59;4977398;28;20055;-69
2023/10/24 11:11:29;;;;;;;3.22;1.08;;;;;;;12.91;100.00;99552.25;4968994;28;20058;-69
2023/10/24 11:14:14;;;;;;;7.50;1.58;;;;;;;12.79;100.00;99551.28;4988372;28;20054;-69
2023/10/24 11:16:42;;;;;;;3.47;1.10;;;;;;;12.65;100.00;99561.84;4991057;28;20453;-69
2023/10/24 11:19:27;;;;;;;9.55;1.63;;;;;;;12.81;100.00;99559.06;4991364;28;20105;-69
2023/10/24 11:21:54;;;;;;;10.10;1.48;;;;;;;12.67;100.00;99557.31;4984173;28;20100;-69
2023/10/24 11:24:22;;;;;;;4.82;1.13;;;;;;;12.80;100.00;99545.09;4992147;28;20061;-69
2023/10/24 11:27:04;;;;;;;5.22;1.52;;;;;;;12.58;100.00;99542.19;4991415;28;20046;-68
2023/10/24 11:29:31;;;;;;;8.18;1.52;;;;;;;12.70;100.00;99549.25;4991210;28;20460;-68